createdAt,value
2023-03-22T00:02:20.383Z,4.73
2023-03-22T00:05:11.261Z,5.27
2023-03-22T00:08:00.285Z,4.57
2023-03-22T00:10:49.512Z,4.60
2023-03-22T00:13:38.831Z,5.97
2023-03-22T00:16:28.018Z,5.37
2023-03-22T00:19:17.699Z,5.07
2023-03-22T00:22:08.464Z,5.17
2023-03-22T00:24:57.392Z,5.77
2023-03-22T00:27:46.491Z,4.80
2023-03-22T00:30:35.316Z,5.60
2023-03-22T00:33:25.471Z,5.10
2023-03-22T00:36:14.529Z,5.77
2023-03-22T00:39:05.652Z,5.47
2023-03-22T00:41:55.944Z,5.67
2023-03-22T00:44:44.774Z,6.50
2023-03-22T00:47:33.981Z,6.80
2023-03-22T00:50:22.908Z,6.20
2023-03-22T00:53:11.725Z,5.80
2023-03-22T00:56:05.667Z,6.33
2023-03-22T00:59:03.376Z,6.30
2023-03-22T01:01:52.758Z,6.60
2023-03-22T01:04:46.217Z,6.33
2023-03-22T01:07:38.286Z,5.57
2023-03-22T01:10:27.300Z,5.10
2023-03-22T01:13:18.712Z,5.30
2023-03-22T01:16:09.120Z,5.50
2023-03-22T01:18:58.097Z,5.20
2023-03-22T01:21:47.017Z,5.77
2023-03-22T01:24:36.707Z,5.70
2023-03-22T01:27:25.678Z,5.87
2023-03-22T01:30:16.163Z,5.57
2023-03-22T01:33:07.820Z,4.90
2023-03-22T01:35:56.750Z,5.03
2023-03-22T01:38:45.977Z,5.00
2023-03-22T01:41:35.256Z,4.77
2023-03-22T01:44:32.155Z,5.77
2023-03-22T01:47:24.490Z,5.13
2023-03-22T01:50:15.281Z,5.90
2023-03-22T01:53:05.361Z,5.43
2023-03-22T01:55:59.271Z,5.97
2023-03-22T01:58:55.440Z,6.37
2023-03-22T02:01:51.936Z,5.70
2023-03-22T02:04:42.485Z,6.10
2023-03-22T02:07:32.103Z,5.70
2023-03-22T02:10:28.186Z,6.40
2023-03-22T02:13:47.770Z,5.57
2023-03-22T02:17:24.648Z,5.70
2023-03-22T02:21:20.652Z,5.87
2023-03-22T02:25:20.337Z,6.07
2023-03-22T02:28:22.569Z,5.97
2023-03-22T02:32:05.394Z,6.13
2023-03-22T02:35:27.450Z,5.97
2023-03-22T02:38:52.625Z,6.60
2023-03-22T02:42:23.102Z,7.60
2023-03-22T02:45:19.225Z,7.47
2023-03-22T02:48:16.742Z,7.00
2023-03-22T02:51:13.174Z,8.37
2023-03-22T02:54:12.417Z,8.87
2023-03-22T02:57:09.560Z,9.83
2023-03-22T03:00:01.931Z,10.00
2023-03-22T03:02:55.964Z,9.60
2023-03-22T03:05:51.793Z,8.67
2023-03-22T03:08:42.330Z,8.27
2023-03-22T03:11:33.613Z,9.80
2023-03-22T03:14:26.693Z,9.20
2023-03-22T03:17:39.949Z,9.47
2023-03-22T03:20:46.468Z,9.30
2023-03-22T03:23:49.613Z,9.80
2023-03-22T03:26:53.145Z,10.27
2023-03-22T03:29:49.685Z,10.20
2023-03-22T03:32:48.500Z,8.90
2023-03-22T03:35:45.407Z,9.17
2023-03-22T03:38:40.176Z,8.90
2023-03-22T03:41:32.207Z,9.40
2023-03-22T03:44:23.464Z,8.90
2023-03-22T03:47:14.517Z,8.97
2023-03-22T03:50:04.015Z,10.63
2023-03-22T03:52:55.576Z,9.23
2023-03-22T03:55:44.933Z,10.00
2023-03-22T03:58:38.278Z,10.80
2023-03-22T04:01:28.946Z,10.40
2023-03-22T04:04:31.201Z,12.20
2023-03-22T04:07:23.739Z,11.77
2023-03-22T04:10:12.964Z,11.50
2023-03-22T04:13:01.831Z,11.50
2023-03-22T04:15:54.510Z,10.97
2023-03-22T04:18:45.066Z,11.40
2023-03-22T04:21:35.407Z,11.30
2023-03-22T04:24:24.977Z,12.13
2023-03-22T04:27:15.452Z,10.70
2023-03-22T04:30:27.522Z,11.37
2023-03-22T04:33:39.658Z,10.97
2023-03-22T04:36:47.456Z,11.93
2023-03-22T04:39:46.728Z,12.23
2023-03-22T04:42:48.510Z,11.13
2023-03-22T04:45:49.043Z,11.87
2023-03-22T04:48:44.130Z,12.10
2023-03-22T04:51:35.625Z,11.83
2023-03-22T04:54:38.808Z,11.53
2023-03-22T04:57:28.810Z,11.33
2023-03-22T05:00:21.706Z,11.80
2023-03-22T05:03:11.280Z,11.43
2023-03-22T05:06:09.072Z,11.87
2023-03-22T05:09:07.219Z,11.57
2023-03-22T05:11:57.794Z,11.60
2023-03-22T05:15:03.675Z,12.27
2023-03-22T05:17:56.754Z,11.80
2023-03-22T05:20:46.261Z,12.10
2023-03-22T05:23:42.044Z,11.60
2023-03-22T05:26:32.074Z,12.73
2023-03-22T05:29:25.330Z,13.07
2023-03-22T05:32:25.621Z,13.47
2023-03-22T05:35:19.041Z,15.40
2023-03-22T05:38:13.393Z,17.93
2023-03-22T05:41:10.705Z,17.30
2023-03-22T05:44:00.198Z,16.47
2023-03-22T05:46:51.003Z,18.47
2023-03-22T05:49:56.957Z,19.40
2023-03-22T05:52:54.193Z,18.07
2023-03-22T05:56:00.705Z,18.07
2023-03-22T06:25:08.566Z,13.60
2023-03-22T06:28:11.450Z,14.87
2023-03-22T06:31:08.454Z,12.43
2023-03-22T06:34:23.846Z,12.80
2023-03-22T06:37:12.832Z,12.77
2023-03-22T06:40:16.308Z,13.60
2023-03-22T06:43:07.220Z,12.80
2023-03-22T06:45:58.451Z,10.93
2023-03-22T06:48:53.805Z,13.20
2023-03-22T06:51:42.914Z,11.20
2023-03-22T06:54:31.810Z,10.43
2023-03-22T06:57:22.494Z,9.70
2023-03-22T07:00:13.440Z,10.37
2023-03-22T07:03:02.717Z,10.00
2023-03-22T07:06:18.238Z,9.00
2023-03-22T07:09:11.405Z,8.40
2023-03-22T07:12:00.856Z,9.77
2023-03-22T07:14:51.294Z,9.30
2023-03-22T07:17:55.690Z,8.90
2023-03-22T07:20:44.774Z,9.07
2023-03-22T07:23:36.322Z,8.90
2023-03-22T07:26:32.634Z,9.40
2023-03-22T07:29:37.651Z,8.57
2023-03-22T07:32:42.615Z,9.30
2023-03-22T07:35:43.666Z,8.93
2023-03-22T07:38:36.261Z,10.37
2023-03-22T07:41:31.697Z,8.90
2023-03-22T07:44:53.041Z,8.90
2023-03-22T07:47:43.947Z,10.87
2023-03-22T07:50:42.211Z,9.30
2023-03-22T07:53:36.260Z,9.53
2023-03-22T07:56:27.574Z,8.67
2023-03-22T07:59:17.461Z,8.27
2023-03-22T08:02:11.921Z,9.60
2023-03-22T08:05:11.222Z,9.90
2023-03-22T08:08:04.380Z,9.73
2023-03-22T08:10:53.733Z,8.77
2023-03-22T08:13:42.950Z,10.00
2023-03-22T08:16:36.041Z,9.50
2023-03-22T08:19:27.231Z,9.43
2023-03-22T08:22:18.033Z,9.70
2023-03-22T08:25:27.243Z,9.23
2023-03-22T08:28:21.440Z,8.70
2023-03-22T08:31:15.070Z,8.87
2023-03-22T08:34:05.749Z,8.53
2023-03-22T08:36:54.841Z,8.60
2023-03-22T08:39:46.301Z,9.93
2023-03-22T08:42:54.126Z,9.03
2023-03-22T08:45:43.716Z,8.80
2023-03-22T08:48:38.415Z,10.57
2023-03-22T08:51:37.123Z,8.93
2023-03-22T08:54:42.542Z,8.87
2023-03-22T08:57:51.855Z,9.73
2023-03-22T09:00:48.570Z,9.47
2023-03-22T09:03:46.222Z,9.87
2023-03-22T09:06:35.240Z,9.70
2023-03-22T09:09:24.119Z,8.63
2023-03-22T09:12:15.677Z,9.47
2023-03-22T09:15:08.093Z,9.20
2023-03-22T09:17:59.172Z,9.50
2023-03-22T09:20:48.688Z,8.53
2023-03-22T09:23:42.483Z,8.57
2023-03-22T09:26:33.332Z,9.70
2023-03-22T09:29:22.455Z,8.50
2023-03-22T09:32:12.752Z,8.03
2023-03-22T09:35:02.689Z,9.23
2023-03-22T09:38:00.811Z,8.20
2023-03-22T09:41:00.705Z,7.97
2023-03-22T09:43:57.195Z,9.00
2023-03-22T09:46:57.568Z,8.33
2023-03-22T09:49:56.616Z,9.10
2023-03-22T09:52:46.125Z,8.40
2023-03-22T09:55:45.616Z,8.03
2023-03-22T09:58:46.654Z,9.40
2023-03-22T10:01:41.898Z,8.10
2023-03-22T10:04:57.716Z,8.07
2023-03-22T10:08:20.867Z,8.10
2023-03-22T10:11:25.497Z,6.87
2023-03-22T10:14:39.896Z,6.33
2023-03-22T10:17:31.028Z,6.00
2023-03-22T10:20:36.879Z,5.30
2023-03-22T10:23:36.412Z,4.50
2023-03-22T10:26:30.336Z,4.00
2023-03-22T10:29:31.165Z,4.53
2023-03-22T10:32:30.356Z,3.60
2023-03-22T10:35:19.279Z,3.60
2023-03-22T10:38:22.394Z,2.90
2023-03-22T10:41:14.761Z,3.33
2023-03-22T10:44:07.590Z,3.90
2023-03-22T10:47:00.670Z,2.73
2023-03-22T10:49:55.839Z,3.20
2023-03-22T10:52:52.840Z,3.10
2023-03-22T10:55:44.940Z,2.80
2023-03-22T10:58:41.632Z,3.43
2023-03-22T11:01:37.726Z,3.83
2023-03-22T11:04:38.362Z,3.10
2023-03-22T11:07:35.992Z,2.80
2023-03-22T11:10:30.167Z,2.50
2023-03-22T11:13:23.140Z,2.70
2023-03-22T11:16:12.397Z,2.77
2023-03-22T11:19:04.016Z,2.60
2023-03-22T11:21:56.047Z,2.77
2023-03-22T11:29:49.332Z,2.70
2023-03-22T11:32:41.096Z,3.00
2023-03-22T11:35:32.869Z,2.80
2023-03-22T11:38:36.498Z,2.73
2023-03-22T11:41:31.204Z,2.60
2023-03-22T11:44:23.840Z,2.33
2023-03-22T11:47:15.421Z,2.20
2023-03-22T11:50:10.742Z,2.80
2023-03-22T11:53:03.468Z,3.00
2023-03-22T11:55:58.036Z,2.10
2023-03-22T11:59:00.603Z,3.80
2023-03-22T12:01:59.459Z,2.63
2023-03-22T12:04:53.592Z,2.73
2023-03-22T12:07:43.379Z,2.47
2023-03-22T12:10:40.185Z,2.33
2023-03-22T12:13:44.426Z,2.10
2023-03-22T12:16:48.816Z,1.97
2023-03-22T12:19:58.653Z,2.30
2023-03-22T12:22:53.996Z,2.50
2023-03-22T12:25:50.578Z,2.40
2023-03-22T12:28:54.184Z,2.30
2023-03-22T12:31:53.745Z,2.90
2023-03-22T12:34:51.074Z,2.03
2023-03-22T12:37:47.435Z,2.17
2023-03-22T12:40:42.491Z,2.20
2023-03-22T12:43:49.457Z,2.50
2023-03-22T12:46:52.541Z,2.30
2023-03-22T12:49:52.061Z,2.33
2023-03-22T12:52:47.419Z,2.00
2023-03-22T12:55:40.399Z,2.80
2023-03-22T12:58:29.578Z,2.50
2023-03-22T13:01:31.477Z,2.17
2023-03-22T13:04:51.288Z,2.57
2023-03-22T13:07:57.150Z,2.37
2023-03-22T13:11:05.575Z,2.20
2023-03-22T13:13:54.444Z,1.80
2023-03-22T13:16:54.451Z,2.10
2023-03-22T13:19:54.027Z,2.10
2023-03-22T13:23:27.549Z,2.20
2023-03-22T13:26:17.350Z,1.87
2023-03-22T13:29:17.395Z,1.93
2023-03-22T13:32:28.578Z,2.30
2023-03-22T13:35:28.847Z,2.30
2023-03-22T13:38:24.399Z,2.10
2023-03-22T13:41:27.829Z,1.70
2023-03-22T13:44:30.469Z,1.50
2023-03-22T13:47:35.858Z,1.70
2023-03-22T13:50:31.203Z,1.60
2023-03-22T13:53:31.107Z,1.47
2023-03-22T13:56:49.175Z,1.70
2023-03-22T14:00:12.157Z,1.77
2023-03-22T14:04:13.331Z,1.50
2023-03-22T14:07:13.057Z,1.40
2023-03-22T14:10:07.981Z,1.50
2023-03-22T14:13:05.604Z,1.50
2023-03-22T14:15:58.754Z,1.40
2023-03-22T14:18:50.887Z,1.67
